CheckWX is a tool to help pilots better visualize weather data.  It is not intended as a substitute for an official pre-flight weather briefing.

05:44:46 UTC

KBOS TAF
General Edward Lawrence Logan International Airport
Boston, Massachusetts, USA
KBOS 140335Z 1404/1506 32008KT P6SM SCT250 FM140500 35006KT P6SM SCT030 BKN150 FM141200 24004KT P6SM BKN120 FM141600 19006KT P6SM BKN110 FM142300 19007KT P6SM BKN045 FM150400 23006KT P6SM BKN060

Nov-14@
04:00 UTC

Nov-14 @ 04:00 UTC

Nov-14@
05:00 UTC

Nov-14 @ 05:00 UTC

KBOS 140335Z 1404/1506 32008KT P6SM SCT250

Expired

Wind
  • 320° at 8 KTS
Cloud Levels
  • Scattered at 25,000' AGL

Nov-14@
05:00 UTC

Nov-14 @ 05:00 UTC

Nov-14@
12:00 UTC

Nov-14 @ 12:00 UTC

FM140500 35006KT P6SM SCT030 BKN150

From

From Standard forecast or significant change

Wind
  • 350° at 6 KTS
Cloud Levels
  • Scattered at 3,000' AGL
  • Broken at 15,000' AGL

Nov-14@
12:00 UTC

Nov-14 @ 12:00 UTC

Nov-14@
16:00 UTC

Nov-14 @ 16:00 UTC

FM141200 24004KT P6SM BKN120

From

From Standard forecast or significant change

Wind
  • 240° at 4 KTS
Cloud Levels
  • Broken at 12,000' AGL

Nov-14@
16:00 UTC

Nov-14 @ 16:00 UTC

Nov-14@
23:00 UTC

Nov-14 @ 23:00 UTC

FM141600 19006KT P6SM BKN110

From

From Standard forecast or significant change

Wind
  • 190° at 6 KTS
Cloud Levels
  • Broken at 11,000' AGL

Nov-14@
23:00 UTC

Nov-14 @ 23:00 UTC

Nov-15@
04:00 UTC

Nov-15 @ 04:00 UTC

FM142300 19007KT P6SM BKN045

From

From Standard forecast or significant change

Wind
  • 190° at 7 KTS
Cloud Levels
  • Broken at 4,500' AGL

Nov-15@
04:00 UTC

Nov-15 @ 04:00 UTC

Nov-15@
06:00 UTC

Nov-15 @ 06:00 UTC

FM150400 23006KT P6SM BKN060

From

From Standard forecast or significant change

Wind
  • 230° at 6 KTS
Cloud Levels
  • Broken at 6,000' AGL